Elk Point, South Dakota
Current Conditions -  °F | °C
As of 3:52 AM on Sunday 26 Oct 2014 (Local Time) from KSUX Reporting Station
Clear Clear  
Wind Chill: 43°   Ceiling: Unl
Heat Index: 47°   Visibility: 10mi
Dew Point: 37°   Wind: 8mph
Humidity: 68%   Direction: 110°ESE
Pressure: 29.95"   Gusts: NA
Location:  42.68°N, 96.68°W
Report Text: KSUX 260852Z 11007KT 10SM CLR 08/03 A2995 RMK AO2 SLP141 T00830028 58018
Loading
Personal Weather Stations






























Interactive Weather Map
Tropical Storm Tracking
New forecast layout! Learn more

10-Day Weather Forecast

Advertisements
Track Severe Weather on mobile